sensor_id;sensor_type;location;lat;lon;timestamp;pressure;altitude;pressure_sealevel;temperature;humidity
50592;BME280;36548;50.506;30.834;2023-02-10T00:01:08;101844.64;;;-3.83;54.68
50592;BME280;36548;50.506;30.834;2023-02-10T00:02:24;101838.77;;;-3.71;54.27
50592;BME280;36548;50.506;30.834;2023-02-10T00:03:34;101845.57;;;-3.81;54.36
50592;BME280;36548;50.506;30.834;2023-02-10T00:04:43;101853.22;;;-3.92;54.16
50592;BME280;36548;50.506;30.834;2023-02-10T00:05:54;101854.05;;;-3.93;54.22
50592;BME280;36548;50.506;30.834;2023-02-10T00:07:04;101844.33;;;-3.99;54.27
50592;BME280;36548;50.506;30.834;2023-02-10T00:08:13;101838.73;;;-4.16;54.78
50592;BME280;36548;50.506;30.834;2023-02-10T00:09:22;101843.97;;;-4.16;54.81
50592;BME280;36548;50.506;30.834;2023-02-10T00:10:31;101839.75;;;-4.09;54.83
50592;BME280;36548;50.506;30.834;2023-02-10T00:11:40;101843.86;;;-4.22;54.78
50592;BME280;36548;50.506;30.834;2023-02-10T00:13:31;101837.94;;;-4.12;54.86
50592;BME280;36548;50.506;30.834;2023-02-10T00:14:40;101840.56;;;-4.12;55.12
50592;BME280;36548;50.506;30.834;2023-02-10T00:15:49;101838.81;;;-4.11;54.76
50592;BME280;36548;50.506;30.834;2023-02-10T00:16:59;101834.50;;;-4.09;54.63
50592;BME280;36548;50.506;30.834;2023-02-10T00:18:08;101835.38;;;-4.08;54.49
50592;BME280;36548;50.506;30.834;2023-02-10T00:19:20;101830.16;;;-4.07;54.67
50592;BME280;36548;50.506;30.834;2023-02-10T00:20:29;101830.75;;;-4.22;54.47
50592;BME280;36548;50.506;30.834;2023-02-10T00:21:40;101817.39;;;-4.33;54.91
50592;BME280;36548;50.506;30.834;2023-02-10T00:22:49;101825.62;;;-4.16;55.19
50592;BME280;36548;50.506;30.834;2023-02-10T00:23:57;101825.41;;;-4.25;54.79
50592;BME280;36548;50.506;30.834;2023-02-10T00:25:07;101817.63;;;-4.22;54.89
50592;BME280;36548;50.506;30.834;2023-02-10T00:26:16;101816.48;;;-4.33;54.81
50592;BME280;36548;50.506;30.834;2023-02-10T00:27:26;101823.11;;;-4.51;55.17
50592;BME280;36548;50.506;30.834;2023-02-10T00:28:37;101826.05;;;-4.37;55.09
50592;BME280;36548;50.506;30.834;2023-02-10T00:29:47;101817.39;;;-4.33;55.06
50592;BME280;36548;50.506;30.834;2023-02-10T00:30:58;101816.43;;;-4.36;54.90
50592;BME280;36548;50.506;30.834;2023-02-10T00:32:07;101825.11;;;-4.39;54.93
50592;BME280;36548;50.506;30.834;2023-02-10T00:33:16;101812.13;;;-4.34;54.95
50592;BME280;36548;50.506;30.834;2023-02-10T00:34:26;101805.07;;;-4.37;54.60
50592;BME280;36548;50.506;30.834;2023-02-10T00:35:37;101807.84;;;-4.29;54.79
50592;BME280;36548;50.506;30.834;2023-02-10T00:36:48;101807.17;;;-4.20;54.82
50592;BME280;36548;50.506;30.834;2023-02-10T00:37:58;101802.80;;;-4.20;54.17
50592;BME280;36548;50.506;30.834;2023-02-10T00:39:14;101806.47;;;-4.12;54.13
50592;BME280;36548;50.506;30.834;2023-02-10T00:40:24;101799.63;;;-4.05;54.36
50592;BME280;36548;50.506;30.834;2023-02-10T00:41:33;101803.96;;;-4.05;53.60
50592;BME280;36548;50.506;30.834;2023-02-10T00:42:45;101804.87;;;-4.05;53.52
50592;BME280;36548;50.506;30.834;2023-02-10T00:43:55;101803.11;;;-4.04;53.27
50592;BME280;36548;50.506;30.834;2023-02-10T00:45:05;101803.14;;;-4.03;53.17
50592;BME280;36548;50.506;30.834;2023-02-10T00:46:18;101794.96;;;-4.18;53.29
50592;BME280;36548;50.506;30.834;2023-02-10T00:47:27;101800.33;;;-4.14;53.65
50592;BME280;36548;50.506;30.834;2023-02-10T00:48:37;101801.75;;;-4.28;53.51
50592;BME280;36548;50.506;30.834;2023-02-10T00:49:47;101796.20;;;-4.42;53.55
50592;BME280;36548;50.506;30.834;2023-02-10T00:51:02;101795.52;;;-4.33;54.05
50592;BME280;36548;50.506;30.834;2023-02-10T00:52:11;101807.66;;;-4.38;53.82
50592;BME280;36548;50.506;30.834;2023-02-10T00:53:20;101806.63;;;-4.45;53.44
50592;BME280;36548;50.506;30.834;2023-02-10T00:54:30;101792.77;;;-4.39;53.65
50592;BME280;36548;50.506;30.834;2023-02-10T00:55:41;101792.53;;;-4.50;53.35
50592;BME280;36548;50.506;30.834;2023-02-10T00:56:50;101793.16;;;-4.62;53.62
50592;BME280;36548;50.506;30.834;2023-02-10T00:58:05;101787.77;;;-4.68;53.75
50592;BME280;36548;50.506;30.834;2023-02-10T00:59:14;101793.69;;;-4.77;54.27
50592;BME280;36548;50.506;30.834;2023-02-10T01:00:30;101788.54;;;-4.72;54.01
50592;BME280;36548;50.506;30.834;2023-02-10T01:01:40;101785.92;;;-4.72;53.82
50592;BME280;36548;50.506;30.834;2023-02-10T01:02:49;101784.30;;;-4.67;53.78
50592;BME280;36548;50.506;30.834;2023-02-10T01:03:58;101790.73;;;-4.53;53.85
50592;BME280;36548;50.506;30.834;2023-02-10T01:05:09;101777.31;;;-4.67;53.64
50592;BME280;36548;50.506;30.834;2023-02-10T01:06:20;101779.37;;;-4.53;53.49
50592;BME280;36548;50.506;30.834;2023-02-10T01:07:30;101780.36;;;-4.48;53.13
50592;BME280;36548;50.506;30.834;2023-02-10T01:08:39;101777.80;;;-4.45;53.11
50592;BME280;36548;50.506;30.834;2023-02-10T01:09:48;101778.91;;;-4.34;53.37
50592;BME280;36548;50.506;30.834;2023-02-10T01:11:06;101764.91;;;-4.36;52.34
50592;BME280;36548;50.506;30.834;2023-02-10T01:12:15;101768.37;;;-4.37;52.63
50592;BME280;36548;50.506;30.834;2023-02-10T01:13:24;101770.98;;;-4.37;52.39
50592;BME280;36548;50.506;30.834;2023-02-10T01:14:35;101778.02;;;-4.36;52.30
50592;BME280;36548;50.506;30.834;2023-02-10T01:15:46;101761.49;;;-4.32;52.28
50592;BME280;36548;50.506;30.834;2023-02-10T01:16:56;101768.52;;;-4.29;51.97
50592;BME280;36548;50.506;30.834;2023-02-10T01:18:05;101772.77;;;-4.36;51.79
50592;BME280;36548;50.506;30.834;2023-02-10T01:19:20;101763.36;;;-4.26;51.85
50592;BME280;36548;50.506;30.834;2023-02-10T01:20:29;101768.31;;;-4.40;51.94
50592;BME280;36548;50.506;30.834;2023-02-10T01:21:38;101770.20;;;-4.33;52.19
50592;BME280;36548;50.506;30.834;2023-02-10T01:22:55;101757.35;;;-4.20;51.67
50592;BME280;36548;50.506;30.834;2023-02-10T01:24:05;101761.38;;;-4.36;51.77
50592;BME280;36548;50.506;30.834;2023-02-10T01:25:15;101765.77;;;-4.35;51.77
50592;BME280;36548;50.506;30.834;2023-02-10T01:26:24;101763.27;;;-4.29;51.80
50592;BME280;36548;50.506;30.834;2023-02-10T01:27:34;101753.66;;;-4.30;51.47
50592;BME280;36548;50.506;30.834;2023-02-10T01:28:43;101758.17;;;-4.23;51.78
50592;BME280;36548;50.506;30.834;2023-02-10T01:29:52;101760.00;;;-4.19;51.51
50592;BME280;36548;50.506;30.834;2023-02-10T01:31:06;101760.98;;;-4.14;51.48
50592;BME280;36548;50.506;30.834;2023-02-10T01:32:23;101761.12;;;-4.06;51.13
50592;BME280;36548;50.506;30.834;2023-02-10T01:33:33;101761.94;;;-4.08;51.41
50592;BME280;36548;50.506;30.834;2023-02-10T01:34:43;101762.79;;;-4.09;50.94
50592;BME280;36548;50.506;30.834;2023-02-10T01:35:52;101761.09;;;-4.07;50.88
50592;BME280;36548;50.506;30.834;2023-02-10T01:37:01;101758.47;;;-4.07;50.70
50592;BME280;36548;50.506;30.834;2023-02-10T01:38:10;101760.25;;;-4.06;50.88
50592;BME280;36548;50.506;30.834;2023-02-10T01:39:21;101753.23;;;-4.07;50.60
50592;BME280;36548;50.506;30.834;2023-02-10T01:40:30;101762.70;;;-4.14;50.53
50592;BME280;36548;50.506;30.834;2023-02-10T01:41:40;101754.78;;;-4.17;50.80
50592;BME280;36548;50.506;30.834;2023-02-10T01:42:50;101754.70;;;-4.22;50.68
50592;BME280;36548;50.506;30.834;2023-02-10T01:45:34;101751.99;;;-4.25;50.75
50592;BME280;36548;50.506;30.834;2023-02-10T01:46:44;101750.95;;;-4.33;50.83
50592;BME280;36548;50.506;30.834;2023-02-10T01:47:55;101749.05;;;-4.40;50.96
50592;BME280;36548;50.506;30.834;2023-02-10T01:49:07;101746.64;;;-4.31;51.10
50592;BME280;36548;50.506;30.834;2023-02-10T01:50:20;101751.96;;;-4.26;51.35
50592;BME280;36548;50.506;30.834;2023-02-10T01:53:07;101740.11;;;-4.07;50.41
50592;BME280;36548;50.506;30.834;2023-02-10T01:54:25;101748.66;;;-4.18;50.47
50592;BME280;36548;50.506;30.834;2023-02-10T01:55:36;101742.52;;;-4.18;50.50
50592;BME280;36548;50.506;30.834;2023-02-10T01:56:48;101732.95;;;-4.16;50.52
50592;BME280;36548;50.506;30.834;2023-02-10T01:57:57;101741.78;;;-4.11;50.74
50592;BME280;36548;50.506;30.834;2023-02-10T01:59:08;101748.80;;;-4.10;50.60
50592;BME280;36548;50.506;30.834;2023-02-10T02:00:18;101739.08;;;-4.16;50.50
50592;BME280;36548;50.506;30.834;2023-02-10T02:01:29;101745.31;;;-4.11;50.42
50592;BME280;36548;50.506;30.834;2023-02-10T02:02:42;101738.03;;;-4.24;50.33
50592;BME280;36548;50.506;30.834;2023-02-10T02:03:53;101741.62;;;-4.20;50.45
50592;BME280;36548;50.506;30.834;2023-02-10T02:05:06;101732.08;;;-4.15;50.41
50592;BME280;36548;50.506;30.834;2023-02-10T02:06:16;101740.83;;;-4.16;50.45
50592;BME280;36548;50.506;30.834;2023-02-10T02:07:27;101742.63;;;-4.14;50.32
50592;BME280;36548;50.506;30.834;2023-02-10T02:08:39;101731.20;;;-4.16;50.12
50592;BME280;36548;50.506;30.834;2023-02-10T02:09:51;101732.19;;;-4.11;50.26
50592;BME280;36548;50.506;30.834;2023-02-10T02:11:14;101727.80;;;-4.12;49.98
50592;BME280;36548;50.506;30.834;2023-02-10T02:14:10;101734.02;;;-4.06;50.68
50592;BME280;36548;50.506;30.834;2023-02-10T02:16:45;101728.16;;;-3.91;50.30
50592;BME280;36548;50.506;30.834;2023-02-10T02:25:35;101735.11;;;-3.95;49.39
50592;BME280;36548;50.506;30.834;2023-02-10T02:28:11;101731.61;;;-3.96;49.68
50592;BME280;36548;50.506;30.834;2023-02-10T02:29:56;101730.89;;;-3.87;49.57
50592;BME280;36548;50.506;30.834;2023-02-10T02:32:43;101733.30;;;-3.98;49.48
50592;BME280;36548;50.506;30.834;2023-02-10T02:34:13;101730.97;;;-3.82;49.66
50592;BME280;36548;50.506;30.834;2023-02-10T02:35:32;101739.48;;;-3.96;49.39
50592;BME280;36548;50.506;30.834;2023-02-10T02:36:57;101735.91;;;-3.99;49.29
50592;BME280;36548;50.506;30.834;2023-02-10T02:38:14;101726.39;;;-3.94;49.44
50592;BME280;36548;50.506;30.834;2023-02-10T02:39:24;101727.08;;;-4.03;49.69
50592;BME280;36548;50.506;30.834;2023-02-10T02:40:34;101730.68;;;-3.98;49.87
50592;BME280;36548;50.506;30.834;2023-02-10T02:41:43;101728.01;;;-4.01;49.65
50592;BME280;36548;50.506;30.834;2023-02-10T02:42:53;101724.43;;;-4.04;49.82
50592;BME280;36548;50.506;30.834;2023-02-10T02:44:02;101725.38;;;-4.01;50.03
50592;BME280;36548;50.506;30.834;2023-02-10T02:45:19;101725.36;;;-4.02;49.75
50592;BME280;36548;50.506;30.834;2023-02-10T02:46:51;101729.67;;;-4.04;49.75
50592;BME280;36548;50.506;30.834;2023-02-10T02:52:21;101724.54;;;-4.00;49.81
50592;BME280;36548;50.506;30.834;2023-02-10T02:54:57;101729.73;;;-4.01;49.32
50592;BME280;36548;50.506;30.834;2023-02-10T02:57:34;101722.06;;;-3.90;49.55
50592;BME280;36548;50.506;30.834;2023-02-10T02:58:47;101722.89;;;-3.93;49.50
50592;BME280;36548;50.506;30.834;2023-02-10T03:00:09;101719.49;;;-3.87;49.64
50592;BME280;36548;50.506;30.834;2023-02-10T03:01:42;101720.19;;;-3.98;49.23
50592;BME280;36548;50.506;30.834;2023-02-10T03:02:58;101724.05;;;-3.79;49.80
50592;BME280;36548;50.506;30.834;2023-02-10T03:04:11;101708.08;;;-3.91;49.39
50592;BME280;36548;50.506;30.834;2023-02-10T03:05:23;101726.41;;;-3.92;49.36
50592;BME280;36548;50.506;30.834;2023-02-10T03:06:35;101714.05;;;-4.00;49.30
50592;BME280;36548;50.506;30.834;2023-02-10T03:07:44;101717.67;;;-3.91;49.64
50592;BME280;36548;50.506;30.834;2023-02-10T03:08:54;101711.31;;;-4.04;49.41
50592;BME280;36548;50.506;30.834;2023-02-10T03:10:05;101710.56;;;-3.97;49.73
50592;BME280;36548;50.506;30.834;2023-02-10T03:11:14;101713.30;;;-3.92;49.68
50592;BME280;36548;50.506;30.834;2023-02-10T03:12:25;101708.92;;;-3.92;49.52
50592;BME280;36548;50.506;30.834;2023-02-10T03:13:34;101716.84;;;-3.89;49.72
50592;BME280;36548;50.506;30.834;2023-02-10T03:14:44;101717.72;;;-3.90;49.52
50592;BME280;36548;50.506;30.834;2023-02-10T03:15:54;101710.75;;;-3.88;49.50
50592;BME280;36548;50.506;30.834;2023-02-10T03:17:04;101708.10;;;-3.89;49.48
50592;BME280;36548;50.506;30.834;2023-02-10T03:18:13;101714.47;;;-4.22;49.92
50592;BME280;36548;50.506;30.834;2023-02-10T03:19:22;101712.16;;;-4.05;49.93
50592;BME280;36548;50.506;30.834;2023-02-10T03:20:32;101709.67;;;-3.99;49.78
50592;BME280;36548;50.506;30.834;2023-02-10T03:21:43;101714.68;;;-4.12;49.84
50592;BME280;36548;50.506;30.834;2023-02-10T03:22:53;101708.67;;;-4.06;50.03
50592;BME280;36548;50.506;30.834;2023-02-10T03:24:02;101715.79;;;-3.99;50.15
50592;BME280;36548;50.506;30.834;2023-02-10T03:25:11;101714.07;;;-3.98;49.78
50592;BME280;36548;50.506;30.834;2023-02-10T03:26:20;101702.86;;;-3.89;50.22
50592;BME280;36548;50.506;30.834;2023-02-10T03:27:30;101708.30;;;-3.79;50.25
50592;BME280;36548;50.506;30.834;2023-02-10T03:28:39;101702.25;;;-3.74;49.55
50592;BME280;36548;50.506;30.834;2023-02-10T03:29:48;101698.80;;;-3.72;49.19
50592;BME280;36548;50.506;30.834;2023-02-10T03:31:05;101696.98;;;-3.76;49.03
50592;BME280;36548;50.506;30.834;2023-02-10T03:32:16;101691.84;;;-3.68;49.36
50592;BME280;36548;50.506;30.834;2023-02-10T03:33:26;101689.18;;;-3.71;48.85
50592;BME280;36548;50.506;30.834;2023-02-10T03:34:35;101683.89;;;-3.74;48.79
50592;BME280;36548;50.506;30.834;2023-02-10T03:35:44;101688.98;;;-3.82;49.01
50592;BME280;36548;50.506;30.834;2023-02-10T03:36:54;101686.36;;;-3.82;49.04
50592;BME280;36548;50.506;30.834;2023-02-10T03:38:03;101682.72;;;-3.90;49.28
50592;BME280;36548;50.506;30.834;2023-02-10T03:39:13;101684.52;;;-3.88;49.34
50592;BME280;36548;50.506;30.834;2023-02-10T03:40:23;101694.26;;;-3.81;49.39
50592;BME280;36548;50.506;30.834;2023-02-10T03:41:33;101684.52;;;-3.88;48.83
50592;BME280;36548;50.506;30.834;2023-02-10T03:42:42;101682.73;;;-3.89;48.92
50592;BME280;36548;50.506;30.834;2023-02-10T03:43:51;101686.43;;;-3.78;49.40
50592;BME280;36548;50.506;30.834;2023-02-10T03:45:00;101682.94;;;-3.78;48.83
50592;BME280;36548;50.506;30.834;2023-02-10T03:46:10;101677.57;;;-3.86;48.57
50592;BME280;36548;50.506;30.834;2023-02-10T03:47:19;101683.52;;;-3.95;48.84
50592;BME280;36548;50.506;30.834;2023-02-10T03:48:30;101679.84;;;-4.04;48.97
50592;BME280;36548;50.506;30.834;2023-02-10T03:49:40;101676.62;;;-3.89;49.28
50592;BME280;36548;50.506;30.834;2023-02-10T03:50:50;101678.48;;;-3.82;48.97
50592;BME280;36548;50.506;30.834;2023-02-10T03:52:05;101674.30;;;-3.71;48.82
50592;BME280;36548;50.506;30.834;2023-02-10T03:53:13;101674.06;;;-3.85;48.76
50592;BME280;36548;50.506;30.834;2023-02-10T03:54:23;101671.47;;;-3.83;48.93
50592;BME280;36548;50.506;30.834;2023-02-10T03:55:32;101663.50;;;-3.89;48.81
50592;BME280;36548;50.506;30.834;2023-02-10T03:56:42;101662.44;;;-4.01;49.10
50592;BME280;36548;50.506;30.834;2023-02-10T03:57:51;101666.75;;;-4.03;49.38
50592;BME280;36548;50.506;30.834;2023-02-10T03:59:01;101659.91;;;-3.95;49.36
50592;BME280;36548;50.506;30.834;2023-02-10T04:00:12;101663.43;;;-3.94;48.96
50592;BME280;36548;50.506;30.834;2023-02-10T04:01:22;101662.50;;;-3.96;48.95
50592;BME280;36548;50.506;30.834;2023-02-10T04:02:31;101671.13;;;-4.03;49.06
50592;BME280;36548;50.506;30.834;2023-02-10T04:03:40;101670.08;;;-4.13;49.21
50592;BME280;36548;50.506;30.834;2023-02-10T04:04:49;101665.92;;;-4.00;49.37
50592;BME280;36548;50.506;30.834;2023-02-10T04:05:59;101672.80;;;-4.07;49.13
50592;BME280;36548;50.506;30.834;2023-02-10T04:07:09;101664.78;;;-4.16;49.41
50592;BME280;36548;50.506;30.834;2023-02-10T04:08:18;101665.73;;;-4.11;49.35
50592;BME280;36548;50.506;30.834;2023-02-10T04:09:33;101658.11;;;-3.97;49.42
50592;BME280;36548;50.506;30.834;2023-02-10T04:10:43;101659.84;;;-3.99;49.54
50592;BME280;36548;50.506;30.834;2023-02-10T04:11:51;101664.01;;;-4.11;49.32
50592;BME280;36548;50.506;30.834;2023-02-10T04:13:01;101662.39;;;-4.04;49.41
50592;BME280;36548;50.506;30.834;2023-02-10T04:14:11;101658.21;;;-3.92;49.67
50592;BME280;36548;50.506;30.834;2023-02-10T04:15:20;101665.28;;;-3.88;49.39
50592;BME280;36548;50.506;30.834;2023-02-10T04:16:29;101663.57;;;-3.85;49.19
50592;BME280;36548;50.506;30.834;2023-02-10T04:17:38;101658.03;;;-4.02;49.13
50592;BME280;36548;50.506;30.834;2023-02-10T04:18:47;101667.48;;;-4.12;49.39
50592;BME280;36548;50.506;30.834;2023-02-10T04:19:56;101666.73;;;-4.04;49.47
50592;BME280;36548;50.506;30.834;2023-02-10T04:21:07;101664.95;;;-4.05;49.51
50592;BME280;36548;50.506;30.834;2023-02-10T04:22:23;101659.08;;;-3.92;49.33
50592;BME280;36548;50.506;30.834;2023-02-10T04:23:33;101659.03;;;-3.95;49.57
50592;BME280;36548;50.506;30.834;2023-02-10T04:24:42;101664.33;;;-3.92;49.27
50592;BME280;36548;50.506;30.834;2023-02-10T04:25:53;101662.53;;;-3.95;49.16
50592;BME280;36548;50.506;30.834;2023-02-10T04:27:02;101659.93;;;-3.93;49.42
50592;BME280;36548;50.506;30.834;2023-02-10T04:28:11;101661.83;;;-3.86;49.63
50592;BME280;36548;50.506;30.834;2023-02-10T04:29:22;101667.21;;;-3.77;49.74
50592;BME280;36548;50.506;30.834;2023-02-10T04:30:31;101668.27;;;-3.65;49.88
50592;BME280;36548;50.506;30.834;2023-02-10T04:31:45;101660.73;;;-3.45;49.74
50592;BME280;36548;50.506;30.834;2023-02-10T04:32:54;101666.82;;;-3.48;49.77
50592;BME280;36548;50.506;30.834;2023-02-10T04:34:04;101659.97;;;-3.38;49.71
50592;BME280;36548;50.506;30.834;2023-02-10T04:35:14;101659.22;;;-3.29;49.50
50592;BME280;36548;50.506;30.834;2023-02-10T04:36:23;101660.18;;;-3.24;49.02
50592;BME280;36548;50.506;30.834;2023-02-10T04:37:33;101658.52;;;-3.19;48.97
50592;BME280;36548;50.506;30.834;2023-02-10T04:38:42;101660.34;;;-3.13;48.99
50592;BME280;36548;50.506;30.834;2023-02-10T04:39:52;101657.77;;;-3.09;48.78
50592;BME280;36548;50.506;30.834;2023-02-10T04:41:01;101667.41;;;-3.09;48.16
50592;BME280;36548;50.506;30.834;2023-02-10T04:42:12;101662.95;;;-3.15;47.94
50592;BME280;36548;50.506;30.834;2023-02-10T04:43:27;101662.10;;;-3.14;48.20
50592;BME280;36548;50.506;30.834;2023-02-10T04:44:36;101660.77;;;-3.44;48.10
50592;BME280;36548;50.506;30.834;2023-02-10T04:45:46;101663.42;;;-3.40;48.39
50592;BME280;36548;50.506;30.834;2023-02-10T04:46:55;101655.23;;;-3.62;48.45
50592;BME280;36548;50.506;30.834;2023-02-10T04:48:05;101654.20;;;-3.72;48.84
50592;BME280;36548;50.506;30.834;2023-02-10T04:49:16;101658.41;;;-3.82;49.14
50592;BME280;36548;50.506;30.834;2023-02-10T04:50:25;101649.45;;;-3.91;49.51
50592;BME280;36548;50.506;30.834;2023-02-10T04:51:35;101650.17;;;-4.02;49.58
50592;BME280;36548;50.506;30.834;2023-02-10T04:52:44;101643.25;;;-3.98;49.70
50592;BME280;36548;50.506;30.834;2023-02-10T04:53:53;101646.91;;;-3.88;49.94
50592;BME280;36548;50.506;30.834;2023-02-10T04:55:03;101651.45;;;-3.78;49.99
50592;BME280;36548;50.506;30.834;2023-02-10T04:56:15;101648.04;;;-3.72;49.73
50592;BME280;36548;50.506;30.834;2023-02-10T04:57:24;101647.26;;;-3.67;49.74
50592;BME280;36548;50.506;30.834;2023-02-10T04:58:34;101645.62;;;-3.60;49.89
50592;BME280;36548;50.506;30.834;2023-02-10T04:59:43;101649.17;;;-3.58;49.40
50592;BME280;36548;50.506;30.834;2023-02-10T05:00:54;101643.00;;;-3.60;49.27
50592;BME280;36548;50.506;30.834;2023-02-10T05:02:04;101645.73;;;-3.54;49.51
50592;BME280;36548;50.506;30.834;2023-02-10T05:03:14;101645.80;;;-3.49;49.57
50592;BME280;36548;50.506;30.834;2023-02-10T05:04:23;101641.46;;;-3.46;49.53
50592;BME280;36548;50.506;30.834;2023-02-10T05:05:32;101644.98;;;-3.45;49.20
50592;BME280;36548;50.506;30.834;2023-02-10T05:06:41;101637.17;;;-3.40;49.54
50592;BME280;36548;50.506;30.834;2023-02-10T05:07:50;101637.28;;;-3.34;49.30
50592;BME280;36548;50.506;30.834;2023-02-10T05:09:00;101639.89;;;-3.36;48.67
50592;BME280;36548;50.506;30.834;2023-02-10T05:10:11;101639.91;;;-3.34;48.93
50592;BME280;36548;50.506;30.834;2023-02-10T05:11:20;101637.09;;;-3.47;48.63
50592;BME280;36548;50.506;30.834;2023-02-10T05:12:29;101640.48;;;-3.54;48.91
50592;BME280;36548;50.506;30.834;2023-02-10T05:13:40;101643.00;;;-3.60;49.04
50592;BME280;36548;50.506;30.834;2023-02-10T05:14:49;101638.55;;;-3.64;49.06
50592;BME280;36548;50.506;30.834;2023-02-10T05:15:58;101637.69;;;-3.65;49.25
50592;BME280;36548;50.506;30.834;2023-02-10T05:17:09;101649.98;;;-3.62;49.28
50592;BME280;36548;50.506;30.834;2023-02-10T05:18:17;101634.11;;;-3.68;49.02
50592;BME280;36548;50.506;30.834;2023-02-10T05:19:27;101642.58;;;-3.85;49.61
50592;BME280;36548;50.506;30.834;2023-02-10T05:20:37;101644.99;;;-3.97;49.89
50592;BME280;36548;50.506;30.834;2023-02-10T05:21:46;101647.55;;;-4.02;50.25
50592;BME280;36548;50.506;30.834;2023-02-10T05:22:55;101645.05;;;-3.96;50.41
50592;BME280;36548;50.506;30.834;2023-02-10T05:24:04;101646.56;;;-4.07;50.50
50592;BME280;36548;50.506;30.834;2023-02-10T05:25:14;101650.77;;;-4.17;50.27
50592;BME280;36548;50.506;30.834;2023-02-10T05:26:23;101647.45;;;-4.08;50.50
50592;BME280;36548;50.506;30.834;2023-02-10T05:27:33;101649.21;;;-4.05;50.60
50592;BME280;36548;50.506;30.834;2023-02-10T05:28:42;101645.88;;;-3.98;50.52
50592;BME280;36548;50.506;30.834;2023-02-10T05:29:57;101646.16;;;-3.81;50.20
50592;BME280;36548;50.506;30.834;2023-02-10T05:31:06;101648.63;;;-3.89;49.91
50592;BME280;36548;50.506;30.834;2023-02-10T05:32:16;101647.74;;;-3.91;49.98
50592;BME280;36548;50.506;30.834;2023-02-10T05:33:26;101646.11;;;-3.84;49.70
50592;BME280;36548;50.506;30.834;2023-02-10T05:34:35;101650.45;;;-3.85;49.47
50592;BME280;36548;50.506;30.834;2023-02-10T05:35:44;101649.80;;;-3.73;49.36
50592;BME280;36548;50.506;30.834;2023-02-10T05:36:53;101652.58;;;-3.64;49.53
50592;BME280;36548;50.506;30.834;2023-02-10T05:38:02;101650.98;;;-3.54;49.26
50592;BME280;36548;50.506;30.834;2023-02-10T05:39:11;101653.75;;;-3.43;49.00
50592;BME280;36548;50.506;30.834;2023-02-10T05:40:33;101650.94;;;-3.55;48.46
50592;BME280;36548;50.506;30.834;2023-02-10T05:41:42;101649.09;;;-3.61;48.73
50592;BME280;36548;50.506;30.834;2023-02-10T05:42:50;101648.46;;;-3.46;48.65
50592;BME280;36548;50.506;30.834;2023-02-10T05:43:59;101650.45;;;-3.31;48.89
50592;BME280;36548;50.506;30.834;2023-02-10T05:45:08;101643.55;;;-3.24;48.42
50592;BME280;36548;50.506;30.834;2023-02-10T05:46:23;101641.62;;;-3.35;48.20
50592;BME280;36548;50.506;30.834;2023-02-10T05:47:32;101646.02;;;-3.35;48.51
50592;BME280;36548;50.506;30.834;2023-02-10T05:48:47;101639.33;;;-3.13;48.79
50592;BME280;36548;50.506;30.834;2023-02-10T05:49:56;101645.25;;;-3.27;48.40
50592;BME280;36548;50.506;30.834;2023-02-10T05:51:05;101647.11;;;-3.19;48.75
50592;BME280;36548;50.506;30.834;2023-02-10T05:52:14;101648.08;;;-3.13;48.82
50592;BME280;36548;50.506;30.834;2023-02-10T05:53:23;101645.59;;;-3.03;49.03
50592;BME280;36548;50.506;30.834;2023-02-10T05:54:32;101636.91;;;-2.98;48.92
50592;BME280;36548;50.506;30.834;2023-02-10T05:55:41;101646.64;;;-2.91;48.89
50592;BME280;36548;50.506;30.834;2023-02-10T05:56:50;101646.75;;;-2.83;48.90
50592;BME280;36548;50.506;30.834;2023-02-10T05:58:01;101646.84;;;-2.74;48.91
50592;BME280;36548;50.506;30.834;2023-02-10T05:59:12;101636.44;;;-2.66;48.72
50592;BME280;36548;50.506;30.834;2023-02-10T06:00:24;101632.98;;;-2.62;48.24
50592;BME280;36548;50.506;30.834;2023-02-10T06:01:39;101634.08;;;-2.44;48.29
50592;BME280;36548;50.506;30.834;2023-02-10T06:02:47;101632.22;;;-2.51;48.33
50592;BME280;36548;50.506;30.834;2023-02-10T06:03:58;101633.16;;;-2.46;48.22
50592;BME280;36548;50.506;30.834;2023-02-10T06:05:07;101631.41;;;-2.46;48.03
50592;BME280;36548;50.506;30.834;2023-02-10T06:06:16;101631.48;;;-2.40;48.15
50592;BME280;36548;50.506;30.834;2023-02-10T06:07:26;101624.53;;;-2.36;47.78
50592;BME280;36548;50.506;30.834;2023-02-10T06:08:42;101622.92;;;-2.20;47.82
50592;BME280;36548;50.506;30.834;2023-02-10T06:09:51;101628.97;;;-2.30;47.62
50592;BME280;36548;50.506;30.834;2023-02-10T06:11:01;101631.62;;;-2.27;47.84
50592;BME280;36548;50.506;30.834;2023-02-10T06:12:10;101632.49;;;-2.27;47.54
50592;BME280;36548;50.506;30.834;2023-02-10T06:13:20;101628.08;;;-2.29;47.27
50592;BME280;36548;50.506;30.834;2023-02-10T06:14:29;101623.72;;;-2.29;47.54
50592;BME280;36548;50.506;30.834;2023-02-10T06:15:39;101629.87;;;-2.25;47.55
50592;BME280;36548;50.506;30.834;2023-02-10T06:16:47;101617.64;;;-2.23;47.72
50592;BME280;36548;50.506;30.834;2023-02-10T06:17:57;101612.41;;;-2.18;47.53
50592;BME280;36548;50.506;30.834;2023-02-10T06:19:07;101615.06;;;-2.15;47.48
50592;BME280;36548;50.506;30.834;2023-02-10T06:20:19;101608.98;;;-2.10;47.63
50592;BME280;36548;50.506;30.834;2023-02-10T06:21:29;101612.56;;;-2.01;47.68
50592;BME280;36548;50.506;30.834;2023-02-10T06:22:38;101609.98;;;-2.00;47.08
50592;BME280;36548;50.506;30.834;2023-02-10T06:23:47;101611.73;;;-1.97;47.41
50592;BME280;36548;50.506;30.834;2023-02-10T06:25:04;101611.84;;;-1.85;47.32
50592;BME280;36548;50.506;30.834;2023-02-10T06:26:14;101614.37;;;-1.96;47.01
50592;BME280;36548;50.506;30.834;2023-02-10T06:27:24;101608.23;;;-1.96;47.51
50592;BME280;36548;50.506;30.834;2023-02-10T06:28:34;101614.44;;;-1.90;47.73
50592;BME280;36548;50.506;30.834;2023-02-10T06:29:44;101610.13;;;-1.81;47.46
50592;BME280;36548;50.506;30.834;2023-02-10T06:30:54;101604.86;;;-1.81;46.83